createdAt,value
2019-06-20T00:02:27.078Z,3.07
2019-06-20T00:04:57.485Z,3.00
2019-06-20T00:07:27.885Z,2.97
2019-06-20T00:09:58.361Z,3.50
2019-06-20T00:12:28.831Z,3.17
2019-06-20T00:14:59.271Z,2.83
2019-06-20T00:17:29.660Z,2.77
2019-06-20T00:20:00.166Z,2.90
2019-06-20T00:22:30.658Z,3.03
2019-06-20T00:25:02.934Z,3.50
2019-06-20T00:27:33.285Z,3.17
2019-06-20T00:30:03.735Z,2.90
2019-06-20T00:32:34.286Z,2.50
2019-06-20T00:35:04.797Z,3.37
2019-06-20T00:37:35.306Z,3.03
2019-06-20T00:40:07.083Z,3.10
2019-06-20T00:42:37.554Z,3.40
2019-06-20T00:45:09.146Z,2.50
2019-06-20T00:47:39.608Z,3.77
2019-06-20T00:50:10.340Z,2.77
2019-06-20T00:52:40.834Z,2.60
2019-06-20T00:55:11.431Z,2.90
2019-06-20T00:57:41.864Z,2.93
2019-06-20T01:00:12.795Z,3.27
2019-06-20T01:02:43.286Z,3.13
2019-06-20T01:05:14.138Z,2.90
2019-06-20T01:07:44.623Z,2.83
2019-06-20T01:10:15.202Z,2.97
2019-06-20T01:12:45.705Z,3.07
2019-06-20T01:15:16.106Z,4.63
2019-06-20T01:17:46.631Z,3.03
2019-06-20T01:20:17.951Z,3.10
2019-06-20T01:22:48.409Z,2.83
2019-06-20T01:25:47.118Z,2.50
2019-06-20T01:28:17.602Z,2.73
2019-06-20T01:30:48.040Z,3.50
2019-06-20T01:33:18.489Z,2.97
2019-06-20T01:35:49.207Z,3.50
2019-06-20T01:38:19.703Z,3.60
2019-06-20T01:40:50.119Z,2.80
2019-06-20T01:43:20.585Z,3.57
2019-06-20T01:45:51.961Z,3.73
2019-06-20T01:48:22.413Z,3.47
2019-06-20T01:50:52.943Z,3.50
2019-06-20T01:53:23.358Z,3.17
2019-06-20T01:55:53.761Z,3.13
2019-06-20T01:58:24.521Z,3.23
2019-06-20T02:00:55.032Z,3.33
2019-06-20T02:03:25.482Z,3.60
2019-06-20T02:05:56.103Z,3.90
2019-06-20T02:08:26.789Z,3.40
2019-06-20T02:10:57.288Z,3.80
2019-06-20T02:13:27.788Z,3.87
2019-06-20T02:15:58.261Z,2.77
2019-06-20T02:18:28.877Z,4.00
2019-06-20T02:21:01.708Z,3.20
2019-06-20T02:23:32.431Z,3.30
2019-06-20T02:26:02.931Z,3.50
2019-06-20T02:28:32.570Z,3.30
2019-06-20T02:31:03.002Z,3.90
2019-06-20T02:33:33.710Z,4.20
2019-06-20T02:36:04.170Z,3.70
2019-06-20T02:38:34.627Z,3.53
2019-06-20T02:41:05.090Z,4.03
2019-06-20T02:43:35.687Z,3.53
2019-06-20T02:46:06.920Z,3.47
2019-06-20T02:48:37.431Z,3.43
2019-06-20T02:51:07.899Z,2.90
2019-06-20T02:53:38.410Z,3.53
2019-06-20T02:56:08.841Z,3.70
2019-06-20T02:58:39.457Z,4.07
2019-06-20T03:01:09.920Z,3.10
2019-06-20T03:03:40.281Z,3.30
2019-06-20T03:06:10.825Z,3.67
2019-06-20T03:08:41.511Z,6.00
2019-06-20T03:11:11.937Z,4.70
2019-06-20T03:13:42.357Z,3.20
2019-06-20T03:16:12.841Z,3.67
2019-06-20T03:18:43.246Z,3.60
2019-06-20T03:21:13.756Z,4.00
2019-06-20T03:23:44.144Z,3.50
2019-06-20T03:26:14.622Z,3.33
2019-06-20T03:28:45.062Z,3.73
2019-06-20T03:31:15.525Z,3.83
2019-06-20T03:33:45.911Z,4.40
2019-06-20T03:36:16.362Z,4.70
2019-06-20T03:38:46.785Z,3.70
2019-06-20T03:41:17.235Z,3.27
2019-06-20T03:43:47.666Z,3.60
2019-06-20T03:46:18.101Z,4.40
2019-06-20T03:48:48.493Z,3.07
2019-06-20T03:51:18.944Z,3.60
2019-06-20T03:53:49.577Z,3.10
2019-06-20T03:56:21.119Z,3.70
2019-06-20T03:58:51.570Z,3.80
2019-06-20T04:01:21.979Z,3.03
2019-06-20T04:03:52.358Z,3.80
2019-06-20T04:06:22.829Z,4.33
2019-06-20T04:08:53.259Z,3.10
2019-06-20T04:11:23.714Z,2.80
2019-06-20T04:13:54.117Z,3.07
2019-06-20T04:16:24.591Z,3.20
2019-06-20T04:18:55.077Z,3.53
2019-06-20T04:21:25.490Z,3.37
2019-06-20T04:23:56.035Z,3.00
2019-06-20T04:26:26.420Z,3.20
2019-06-20T04:28:56.873Z,3.20
2019-06-20T04:31:27.318Z,2.73
2019-06-20T04:33:58.142Z,2.90
2019-06-20T04:36:28.497Z,2.70
2019-06-20T04:38:58.942Z,3.50
2019-06-20T04:41:29.340Z,3.20
2019-06-20T04:43:59.808Z,2.93
2019-06-20T04:46:42.393Z,3.23
2019-06-20T04:49:12.891Z,2.87
2019-06-20T04:51:43.595Z,3.07
2019-06-20T04:54:14.046Z,2.90
2019-06-20T04:56:44.511Z,2.83
2019-06-20T04:59:14.994Z,2.83
2019-06-20T05:01:45.512Z,3.10
2019-06-20T05:04:15.961Z,2.10
2019-06-20T05:06:51.865Z,2.40
2019-06-20T05:09:22.369Z,3.10
2019-06-20T05:11:52.925Z,3.07
2019-06-20T05:14:23.385Z,3.17
2019-06-20T05:16:55.166Z,2.20
2019-06-20T05:19:25.634Z,2.50
2019-06-20T05:21:56.038Z,1.97
2019-06-20T05:24:26.558Z,2.23
2019-06-20T05:26:56.997Z,2.40
2019-06-20T05:29:27.777Z,2.93
2019-06-20T05:31:58.253Z,1.97
2019-06-20T05:34:29.063Z,2.60
2019-06-20T05:36:59.629Z,2.40
2019-06-20T05:39:30.067Z,2.57
2019-06-20T05:42:00.831Z,2.70
2019-06-20T05:44:31.275Z,2.00
2019-06-20T05:47:12.626Z,2.83
2019-06-20T05:49:34.039Z,2.30
2019-06-20T05:52:04.731Z,2.13
2019-06-20T05:54:35.195Z,2.13
2019-06-20T05:57:05.773Z,2.30
2019-06-20T05:59:42.134Z,2.60
2019-06-20T06:02:12.629Z,2.57
2019-06-20T06:04:44.017Z,2.50
2019-06-20T06:07:14.635Z,1.97
2019-06-20T06:09:45.700Z,2.10
2019-06-20T06:12:16.436Z,2.40
2019-06-20T06:14:46.835Z,2.20
2019-06-20T06:17:17.297Z,2.00
2019-06-20T06:19:47.849Z,1.83
2019-06-20T06:22:18.530Z,2.23
2019-06-20T06:24:48.917Z,2.20
2019-06-20T06:27:20.319Z,2.23
2019-06-20T06:29:50.815Z,2.40
2019-06-20T06:32:21.278Z,2.10
2019-06-20T06:34:51.833Z,1.80
2019-06-20T06:37:22.265Z,2.53
2019-06-20T06:39:52.677Z,2.60
2019-06-20T06:42:23.141Z,1.90
2019-06-20T06:44:53.561Z,2.47
2019-06-20T06:47:24.015Z,2.30
2019-06-20T06:49:54.413Z,2.27
2019-06-20T06:52:26.928Z,2.00
2019-06-20T06:54:59.572Z,2.30
2019-06-20T06:57:30.039Z,2.20
2019-06-20T07:00:00.521Z,2.10
2019-06-20T07:02:31.048Z,2.10
2019-06-20T07:05:02.057Z,1.87
2019-06-20T07:07:32.603Z,2.17
2019-06-20T07:10:03.216Z,1.77
2019-06-20T07:12:33.780Z,1.67
2019-06-20T07:15:04.786Z,1.30
2019-06-20T07:17:35.299Z,1.80
2019-06-20T07:20:07.057Z,1.60
2019-06-20T07:22:37.582Z,1.70
2019-06-20T07:25:09.692Z,1.67
2019-06-20T07:27:40.301Z,1.43
2019-06-20T07:30:11.825Z,2.00
2019-06-20T07:32:42.241Z,1.63
2019-06-20T07:35:13.031Z,1.73
2019-06-20T07:37:43.518Z,2.07
2019-06-20T07:40:14.480Z,1.80
2019-06-20T07:42:44.904Z,2.07
2019-06-20T07:45:16.019Z,1.63
2019-06-20T07:47:46.457Z,1.33
2019-06-20T07:50:18.386Z,1.50
2019-06-20T07:53:01.635Z,1.90
2019-06-20T07:55:21.295Z,1.70
2019-06-20T07:57:51.721Z,1.50
2019-06-20T08:00:24.189Z,1.63
2019-06-20T08:02:54.673Z,1.70
2019-06-20T08:05:25.635Z,1.93
2019-06-20T08:07:56.167Z,1.87
2019-06-20T08:10:27.138Z,2.17
2019-06-20T08:12:57.590Z,1.80
2019-06-20T08:15:28.283Z,2.07
2019-06-20T08:17:59.005Z,2.20
2019-06-20T08:20:29.597Z,1.60
2019-06-20T08:23:00.205Z,1.63
2019-06-20T08:25:30.803Z,1.97
2019-06-20T08:28:02.454Z,1.90
2019-06-20T08:30:35.294Z,1.90
2019-06-20T08:33:11.526Z,1.97
2019-06-20T08:35:39.071Z,1.80
2019-06-20T08:38:09.622Z,2.20
2019-06-20T08:40:43.789Z,1.83
2019-06-20T08:43:15.099Z,2.10
2019-06-20T08:45:45.599Z,1.77
2019-06-20T08:48:16.201Z,1.97
2019-06-20T08:50:47.057Z,1.93
2019-06-20T08:53:17.597Z,1.63
2019-06-20T08:55:48.320Z,1.60
2019-06-20T08:58:18.822Z,1.90
2019-06-20T09:00:50.045Z,1.63
2019-06-20T09:03:20.539Z,1.70
2019-06-20T09:05:51.058Z,1.70
2019-06-20T09:08:21.548Z,2.07
2019-06-20T09:10:54.126Z,2.00
2019-06-20T09:13:24.187Z,1.80
2019-06-20T09:15:54.831Z,1.93
2019-06-20T09:18:25.405Z,2.00
2019-06-20T09:20:56.025Z,1.37
2019-06-20T09:23:26.661Z,1.70
2019-06-20T09:25:57.564Z,1.67
2019-06-20T09:28:28.205Z,1.53
2019-06-20T09:30:59.223Z,1.70
2019-06-20T09:33:30.088Z,1.83
2019-06-20T09:36:00.510Z,1.40
2019-06-20T09:38:31.203Z,1.80
2019-06-20T09:41:01.771Z,1.90
2019-06-20T09:43:32.230Z,1.87
2019-06-20T09:46:02.779Z,1.50
2019-06-20T09:48:33.295Z,1.20
2019-06-20T09:51:03.944Z,1.27
2019-06-20T09:53:34.511Z,1.30
2019-06-20T09:56:05.075Z,1.30
2019-06-20T09:58:35.599Z,1.50
2019-06-20T10:01:06.232Z,0.90
2019-06-20T10:03:36.736Z,1.80
2019-06-20T10:06:14.156Z,1.30
2019-06-20T10:08:39.683Z,1.40
2019-06-20T10:11:10.625Z,1.40
2019-06-20T10:13:41.196Z,1.40
2019-06-20T10:16:11.688Z,1.87
2019-06-20T10:18:42.323Z,1.50
2019-06-20T10:21:15.792Z,1.77
2019-06-20T10:23:47.673Z,1.67
2019-06-20T10:26:18.737Z,1.97
2019-06-20T10:28:49.252Z,1.50
2019-06-20T10:31:19.640Z,1.30
2019-06-20T10:33:50.927Z,1.90
2019-06-20T10:36:21.687Z,1.40
2019-06-20T10:38:52.644Z,1.80
2019-06-20T10:41:23.446Z,1.30
2019-06-20T10:43:53.848Z,1.30
2019-06-20T10:46:24.469Z,1.70
2019-06-20T10:48:54.976Z,1.97
2019-06-20T10:51:33.922Z,1.60
2019-06-20T10:54:04.429Z,1.90
2019-06-20T10:56:34.853Z,1.83
2019-06-20T10:59:05.777Z,1.70
2019-06-20T11:01:36.244Z,2.10
2019-06-20T11:04:07.422Z,1.43
2019-06-20T11:06:39.913Z,1.50
2019-06-20T11:09:11.292Z,1.70
2019-06-20T11:11:43.061Z,1.43
2019-06-20T11:14:13.631Z,1.40
2019-06-20T11:16:45.229Z,1.10
2019-06-20T11:19:15.788Z,1.13
2019-06-20T11:21:47.777Z,1.33
2019-06-20T11:24:18.293Z,1.23
2019-06-20T11:26:48.753Z,1.10
2019-06-20T11:29:19.430Z,1.40
2019-06-20T11:31:49.880Z,1.30
2019-06-20T11:34:20.707Z,1.10
2019-06-20T11:36:51.221Z,1.47
2019-06-20T11:39:21.777Z,1.50
2019-06-20T11:41:52.226Z,1.30
2019-06-20T11:44:24.605Z,1.00
2019-06-20T11:46:55.032Z,1.20
2019-06-20T11:49:25.545Z,1.40
2019-06-20T11:51:56.129Z,1.20
2019-06-20T11:54:26.644Z,1.73
2019-06-20T11:56:57.429Z,1.20
2019-06-20T11:59:28.212Z,1.57
2019-06-20T12:01:58.690Z,1.40
2019-06-20T12:04:29.426Z,1.67
2019-06-20T12:06:59.877Z,1.93
2019-06-20T12:09:30.519Z,1.57
2019-06-20T12:12:01.035Z,1.37
2019-06-20T12:14:34.368Z,2.07
2019-06-20T12:17:05.006Z,1.47
2019-06-20T12:19:35.978Z,1.50
2019-06-20T12:22:06.726Z,1.80
2019-06-20T12:24:38.208Z,1.20
2019-06-20T12:27:09.852Z,1.67
2019-06-20T12:29:40.665Z,1.40
2019-06-20T12:32:11.504Z,1.37
2019-06-20T12:34:42.219Z,1.70
2019-06-20T12:37:12.777Z,1.37
2019-06-20T12:39:44.411Z,1.40
2019-06-20T12:42:15.112Z,1.20
2019-06-20T12:44:46.075Z,1.20
2019-06-20T12:47:16.512Z,1.80
2019-06-20T12:49:47.066Z,1.60
2019-06-20T12:52:17.501Z,1.30
2019-06-20T12:54:49.171Z,1.30
2019-06-20T12:57:19.934Z,1.47
2019-06-20T12:59:50.600Z,2.23
2019-06-20T13:02:21.139Z,1.40
2019-06-20T13:04:51.666Z,1.10
2019-06-20T13:07:22.195Z,1.37
2019-06-20T13:09:52.674Z,1.13
2019-06-20T13:12:25.260Z,1.17
2019-06-20T13:14:55.736Z,1.20
2019-06-20T13:17:26.336Z,1.20
2019-06-20T13:19:56.834Z,1.50
2019-06-20T13:22:27.377Z,1.30
2019-06-20T13:24:58.198Z,1.33
2019-06-20T13:27:28.883Z,1.20
2019-06-20T13:29:59.335Z,1.57
2019-06-20T13:32:29.905Z,1.60
2019-06-20T13:35:00.366Z,1.70
2019-06-20T13:37:31.185Z,1.47
2019-06-20T13:40:01.742Z,1.53
2019-06-20T13:42:32.263Z,1.63
2019-06-20T13:45:02.774Z,1.50
2019-06-20T13:47:33.484Z,1.67
2019-06-20T13:50:04.668Z,1.70
2019-06-20T13:52:38.257Z,1.37
2019-06-20T13:55:08.278Z,1.30
2019-06-20T13:57:41.206Z,1.30
2019-06-20T14:00:11.623Z,1.60
2019-06-20T14:02:43.293Z,1.33
2019-06-20T14:05:15.141Z,1.20
2019-06-20T14:07:48.506Z,1.50
2019-06-20T14:10:19.807Z,1.60
2019-06-20T14:12:50.638Z,1.10
2019-06-20T14:15:21.429Z,1.30
2019-06-20T14:17:53.693Z,1.03
2019-06-20T14:20:25.262Z,1.20
2019-06-20T14:22:56.640Z,1.40
2019-06-20T14:25:27.217Z,1.00
2019-06-20T14:27:57.751Z,1.20
2019-06-20T14:30:29.799Z,1.10
2019-06-20T14:33:00.367Z,1.10
2019-06-20T14:35:30.951Z,1.57
2019-06-20T14:38:01.867Z,1.67
2019-06-20T14:40:32.456Z,1.87
2019-06-20T14:43:02.949Z,1.17
2019-06-20T14:45:33.705Z,1.90
2019-06-20T14:48:04.439Z,1.57
2019-06-20T14:50:35.031Z,1.60
2019-06-20T14:53:05.536Z,1.67
2019-06-20T14:55:36.254Z,1.20
2019-06-20T14:58:06.848Z,1.30
2019-06-20T15:00:37.369Z,1.10
2019-06-20T15:03:07.899Z,1.33
2019-06-20T15:05:38.421Z,1.10
2019-06-20T15:08:08.998Z,1.40
2019-06-20T15:10:39.645Z,1.17
2019-06-20T15:13:10.424Z,1.60
2019-06-20T15:15:41.163Z,1.10
2019-06-20T15:18:11.668Z,1.23
2019-06-20T15:20:42.336Z,1.40
2019-06-20T15:23:12.869Z,1.53
2019-06-20T15:25:43.371Z,1.20
2019-06-20T15:28:13.920Z,1.20
2019-06-20T15:30:44.428Z,1.00
2019-06-20T15:33:14.997Z,1.10
2019-06-20T15:35:45.495Z,1.20
2019-06-20T15:38:16.054Z,3.23
2019-06-20T15:40:47.876Z,2.83
2019-06-20T15:43:19.118Z,1.63
2019-06-20T15:45:50.220Z,1.37
2019-06-20T15:48:21.164Z,0.97
2019-06-20T15:50:51.902Z,1.23
2019-06-20T15:53:22.660Z,1.30
2019-06-20T15:55:53.268Z,1.67
2019-06-20T15:58:23.977Z,2.20
2019-06-20T16:00:54.678Z,1.30
2019-06-20T16:03:25.200Z,1.57
2019-06-20T16:05:55.761Z,1.83
2019-06-20T16:08:26.325Z,1.37
2019-06-20T16:10:57.014Z,1.37
2019-06-20T16:13:27.825Z,1.67
2019-06-20T16:15:58.906Z,1.50
2019-06-20T16:18:29.601Z,1.13
2019-06-20T16:21:00.670Z,5.83
2019-06-20T16:23:31.331Z,1.33
2019-06-20T16:26:02.348Z,1.10
2019-06-20T16:28:33.153Z,1.60
2019-06-20T16:31:08.685Z,1.40
2019-06-20T16:33:36.438Z,1.37
2019-06-20T16:36:07.299Z,1.40
2019-06-20T16:38:38.599Z,1.07
2019-06-20T16:41:09.305Z,1.30
2019-06-20T16:43:39.995Z,2.10
2019-06-20T16:46:10.782Z,0.93
2019-06-20T16:48:41.271Z,1.20
2019-06-20T16:51:11.951Z,1.20
2019-06-20T16:53:42.485Z,1.20
2019-06-20T16:56:13.118Z,0.90
2019-06-20T16:58:43.642Z,1.03
2019-06-20T17:01:14.224Z,1.20
2019-06-20T17:03:44.719Z,0.90
2019-06-20T17:06:15.152Z,1.00
2019-06-20T17:08:45.667Z,1.00
2019-06-20T17:11:16.090Z,2.13
2019-06-20T17:13:46.557Z,1.00
2019-06-20T17:16:16.984Z,0.90
2019-06-20T17:18:47.718Z,1.00
2019-06-20T17:21:18.199Z,0.63
2019-06-20T17:23:48.713Z,0.80
2019-06-20T17:26:19.141Z,0.90
2019-06-20T17:28:49.655Z,0.80
2019-06-20T17:31:20.076Z,0.80
2019-06-20T17:33:57.636Z,1.93
2019-06-20T17:36:23.011Z,3.57
2019-06-20T17:38:53.525Z,2.17
2019-06-20T17:41:23.915Z,6.67
2019-06-20T17:43:54.419Z,5.03
2019-06-20T17:46:24.889Z,1.60
2019-06-20T17:48:55.604Z,1.10
2019-06-20T17:51:26.385Z,0.90
2019-06-20T17:53:56.916Z,1.40
2019-06-20T17:56:27.446Z,1.03
2019-06-20T17:58:58.058Z,1.00
2019-06-20T18:01:28.574Z,0.90
2019-06-20T18:04:12.984Z,1.13
2019-06-20T18:06:31.713Z,0.97
2019-06-20T18:09:02.454Z,1.17
2019-06-20T18:11:33.109Z,1.33
2019-06-20T18:14:03.623Z,0.80
2019-06-20T18:16:34.221Z,1.00
2019-06-20T18:19:04.981Z,1.40
2019-06-20T18:21:35.784Z,0.90
2019-06-20T18:24:06.395Z,0.90
2019-06-20T18:26:37.023Z,1.33
2019-06-20T18:29:07.748Z,1.63
2019-06-20T18:31:38.352Z,1.97
2019-06-20T18:34:09.078Z,2.20
2019-06-20T18:36:42.670Z,1.70
2019-06-20T18:39:12.263Z,1.50
2019-06-20T18:41:42.904Z,1.37
2019-06-20T18:44:13.516Z,1.37
2019-06-20T18:46:44.059Z,1.37
2019-06-20T18:49:14.695Z,1.40
2019-06-20T18:51:45.219Z,1.63
2019-06-20T18:54:15.849Z,1.60
2019-06-20T18:56:46.742Z,1.60
2019-06-20T18:59:17.624Z,1.60
2019-06-20T19:01:48.145Z,1.40
2019-06-20T19:04:19.059Z,1.30
2019-06-20T19:06:49.562Z,1.40
2019-06-20T19:09:20.495Z,1.30
2019-06-20T19:11:50.935Z,1.20
2019-06-20T19:14:21.658Z,1.00
2019-06-20T19:16:52.342Z,1.33
2019-06-20T19:19:22.871Z,1.27
2019-06-20T19:21:53.399Z,1.37
2019-06-20T19:24:23.862Z,1.17
2019-06-20T19:26:54.323Z,2.00
2019-06-20T19:29:24.879Z,1.50
2019-06-20T19:31:55.440Z,2.23
2019-06-20T19:34:25.975Z,2.37
2019-06-20T19:36:56.437Z,1.40
2019-06-20T19:39:27.356Z,0.97
2019-06-20T19:41:57.884Z,2.30
2019-06-20T19:44:28.537Z,1.60
2019-06-20T19:46:59.232Z,1.57
2019-06-20T19:49:29.744Z,1.53
2019-06-20T19:52:00.322Z,1.40
2019-06-20T19:54:31.047Z,1.60
2019-06-20T19:57:01.561Z,2.77
2019-06-20T19:59:31.986Z,1.27
2019-06-20T20:02:02.487Z,1.50
2019-06-20T20:04:32.907Z,1.70
2019-06-20T20:07:03.465Z,1.73
2019-06-20T20:09:33.969Z,1.93
2019-06-20T20:12:05.149Z,1.50
2019-06-20T20:14:36.815Z,1.63
2019-06-20T20:17:07.460Z,1.83
2019-06-20T20:19:38.090Z,2.30
2019-06-20T20:22:08.764Z,2.30
2019-06-20T20:24:39.327Z,2.37
2019-06-20T20:27:09.751Z,1.90
2019-06-20T20:29:40.644Z,2.03
2019-06-20T20:32:11.247Z,1.87
2019-06-20T20:34:41.846Z,2.10
2019-06-20T20:37:12.283Z,1.97
2019-06-20T20:39:42.800Z,2.07
2019-06-20T20:42:13.316Z,2.00
2019-06-20T20:44:43.754Z,2.40
2019-06-20T20:47:14.435Z,2.17
2019-06-20T20:49:44.897Z,2.10
2019-06-20T20:52:15.505Z,1.90
2019-06-20T20:54:45.983Z,2.20
2019-06-20T20:57:16.588Z,2.00
2019-06-20T20:59:47.154Z,2.27
2019-06-20T21:02:17.682Z,2.47
2019-06-20T21:04:48.264Z,1.97
2019-06-20T21:07:18.709Z,2.10
2019-06-20T21:09:49.260Z,2.10
2019-06-20T21:12:19.774Z,2.13
2019-06-20T21:14:50.465Z,2.00
2019-06-20T21:17:21.055Z,2.40
2019-06-20T21:19:51.523Z,2.67
2019-06-20T21:22:22.136Z,2.00
2019-06-20T21:24:52.884Z,2.00
2019-06-20T21:27:23.418Z,2.03
2019-06-20T21:29:53.959Z,1.73
2019-06-20T21:32:25.307Z,1.73
2019-06-20T21:34:55.799Z,2.00
2019-06-20T21:37:26.283Z,2.23
2019-06-20T21:39:57.000Z,2.00
2019-06-20T21:42:27.602Z,2.70
2019-06-20T21:44:58.082Z,1.97
2019-06-20T21:47:28.595Z,2.10
2019-06-20T21:49:59.162Z,2.00
2019-06-20T21:52:29.616Z,2.10
2019-06-20T21:55:00.213Z,2.07
2019-06-20T21:57:30.646Z,1.90
2019-06-20T22:00:01.238Z,2.13
2019-06-20T22:02:31.639Z,2.23
2019-06-20T22:05:02.138Z,2.20
2019-06-20T22:07:32.553Z,1.60
2019-06-20T22:10:03.354Z,2.50
2019-06-20T22:12:33.991Z,1.87
2019-06-20T22:15:05.029Z,2.17
2019-06-20T22:17:36.150Z,2.30
2019-06-20T22:20:07.641Z,2.00
2019-06-20T22:22:38.216Z,1.80
2019-06-20T22:25:09.260Z,2.00
2019-06-20T22:27:40.155Z,2.30
2019-06-20T22:30:12.064Z,2.67
2019-06-20T22:32:42.748Z,2.33
2019-06-20T22:35:13.581Z,2.13
2019-06-20T22:37:44.424Z,2.20
2019-06-20T22:40:15.702Z,1.70
2019-06-20T22:42:46.137Z,2.40
2019-06-20T22:45:16.787Z,1.93
2019-06-20T22:47:47.276Z,2.13
2019-06-20T22:50:17.752Z,2.87
2019-06-20T22:52:48.244Z,2.77
2019-06-20T22:55:19.159Z,2.57
2019-06-20T22:57:49.783Z,2.27
2019-06-20T23:00:20.309Z,2.40
2019-06-20T23:02:50.863Z,2.57
2019-06-20T23:05:21.263Z,2.33
2019-06-20T23:07:51.833Z,2.43
2019-06-20T23:10:22.491Z,2.10
2019-06-20T23:12:52.959Z,2.30
2019-06-20T23:15:24.705Z,3.23
2019-06-20T23:17:55.166Z,2.67
2019-06-20T23:20:25.931Z,2.50
2019-06-20T23:22:59.247Z,2.80
2019-06-20T23:25:31.190Z,2.30
2019-06-20T23:28:01.711Z,2.13
2019-06-20T23:30:35.262Z,2.80
2019-06-20T23:33:05.847Z,2.23
2019-06-20T23:35:36.738Z,2.60
2019-06-20T23:38:07.230Z,2.27
2019-06-20T23:40:37.613Z,2.17
2019-06-20T23:43:08.290Z,2.23
2019-06-20T23:45:38.693Z,2.10
2019-06-20T23:48:09.100Z,2.17
2019-06-20T23:50:39.584Z,2.43
2019-06-20T23:53:16.261Z,2.60
2019-06-20T23:55:46.992Z,2.60
2019-06-20T23:58:17.427Z,2.60
